Time;durP1;ratioP1;P1;durP2;ratioP2;P2;SDS_P1;SDS_P2;PMS_P1;PMS_P2;Temp;Humidity;BMP_temperature;BMP_pressure;BME280_temperature;BME280_humidity;BME280_pressure;Samples;Min_cycle;Max_cycle;Signal;HPM_P1;HPM_P2
2021/10/02 00:38:15;;;;;;;16.92;10.95;;;;;;;10.06;72.18;100613.34;4902918;29;20215;-78
2021/10/02 00:46:05;;;;;;;20.23;10.38;;;;;;;10.09;71.52;100581.09;4838642;29;20044;-78
2021/10/02 00:48:31;;;;;;;15.93;10.80;;;;;;;10.21;71.56;100602.63;4856605;29;20056;-79
2021/10/02 00:51:00;;;;;;;16.38;10.43;;;;;;;10.03;71.72;100581.44;4902752;29;20575;-79
2021/10/02 00:53:26;;;;;;;15.88;10.15;;;;;;;10.11;71.27;100584.53;4872382;29;20144;-78
2021/10/02 00:55:52;;;;;;;20.13;10.73;;;;;;;10.19;71.57;100600.97;4871277;29;20052;-78
2021/10/02 00:58:18;;;;;;;12.55;10.23;;;;;;;10.24;71.17;100604.25;4902556;29;20054;-79
2021/10/02 01:00:45;;;;;;;16.88;10.20;;;;;;;10.32;70.98;100599.34;4871734;29;20237;-77
2021/10/02 01:03:35;;;;;;;13.73;10.70;;;;;;;10.35;71.03;100599.19;4886913;29;20139;-79
2021/10/02 01:06:19;;;;;;;15.90;10.30;;;;;;;10.40;70.83;100597.06;4875307;29;20139;-80
2021/10/02 01:09:05;;;;;;;14.77;10.38;;;;;;;10.47;71.06;100594.06;4902390;29;20048;-78
2021/10/02 01:12:10;;;;;;;19.92;11.27;;;;;;;10.53;70.61;100588.31;4886569;29;20154;-80
2021/10/02 01:14:48;;;;;;;13.77;10.88;;;;;;;10.53;70.31;100582.97;4840082;29;20391;-78
2021/10/02 01:17:19;;;;;;;19.52;11.23;;;;;;;10.58;70.16;100583.56;4872028;29;20535;-79
2021/10/02 01:19:54;;;;;;;17.08;11.25;;;;;;;10.53;70.64;100564.25;4902853;29;20424;-79
2021/10/02 01:22:56;;;;;;;17.83;11.52;;;;;;;10.63;69.89;100582.31;4902507;29;20056;-80
2021/10/02 01:25:52;;;;;;;15.05;10.20;;;;;;;10.56;69.69;100586.31;4826453;29;20210;-76
2021/10/02 01:28:19;;;;;;;13.23;9.57;;;;;;;10.45;69.75;100578.97;4901812;29;20076;-80
2021/10/02 01:30:57;;;;;;;14.95;10.00;;;;;;;10.39;69.59;100584.69;4886437;29;20403;-82
2021/10/02 01:33:37;;;;;;;17.73;8.80;;;;;;;10.39;69.76;100583.81;4873411;29;20071;-80
2021/10/02 01:36:26;;;;;;;10.65;8.18;;;;;;;10.32;69.90;100572.63;4887771;29;20406;-80
2021/10/02 01:47:15;;;;;;;9.50;7.97;;;;;;;10.23;70.46;100575.81;4874615;29;20460;-80
2021/10/02 01:50:01;;;;;;;15.25;8.25;;;;;;;10.05;70.87;100588.44;4886136;29;20179;-77
2021/10/02 01:52:38;;;;;;;10.30;7.70;;;;;;;9.99;71.12;100586.09;4885139;29;20048;-78
2021/10/02 01:55:07;;;;;;;10.13;7.60;;;;;;;10.00;71.20;100581.63;4885244;29;20059;-76
2021/10/02 01:57:37;;;;;;;12.35;8.05;;;;;;;9.79;71.54;100563.22;4885779;29;20468;-76
2021/10/02 02:00:04;;;;;;;10.55;7.45;;;;;;;10.00;71.20;100582.47;4870769;29;20048;-76
2021/10/02 02:02:32;;;;;;;14.45;7.85;;;;;;;10.13;70.65;100577.31;4885550;29;20126;-76
2021/10/02 02:04:58;;;;;;;7.78;6.82;;;;;;;10.05;70.59;100569.72;4886053;29;20078;-76
2021/10/02 02:07:26;;;;;;;9.95;7.30;;;;;;;10.08;70.50;100574.00;4885479;29;20496;-76
2021/10/02 02:09:52;;;;;;;8.57;7.20;;;;;;;10.10;70.54;100575.66;4885498;29;20047;-76
2021/10/02 02:12:18;;;;;;;10.70;7.03;;;;;;;10.15;70.50;100575.38;4869151;29;20500;-76
2021/10/02 02:14:44;;;;;;;12.75;7.70;;;;;;;10.21;70.26;100575.03;4884592;29;20067;-78
2021/10/02 02:17:11;;;;;;;14.77;7.00;;;;;;;10.22;70.10;100576.75;4900623;29;20115;-78
2021/10/02 02:19:37;;;;;;;9.60;7.13;;;;;;;10.21;69.98;100575.03;4869969;29;20050;-78
2021/10/02 02:22:03;;;;;;;10.88;6.70;;;;;;;10.05;70.19;100569.72;4885154;29;20085;-76
2021/10/02 02:24:29;;;;;;;8.43;6.75;;;;;;;10.16;70.14;100579.81;4885548;29;20048;-77
2021/10/02 02:26:55;;;;;;;13.00;7.07;;;;;;;10.17;70.30;100585.03;4885289;29;20090;-76
2021/10/02 02:29:21;;;;;;;9.98;6.95;;;;;;;10.13;69.99;100564.78;4885227;29;20052;-77
2021/10/02 02:31:46;;;;;;;9.85;7.00;;;;;;;10.17;69.93;100578.84;4885071;29;20103;-77
2021/10/02 02:34:12;;;;;;;9.25;6.90;;;;;;;10.25;70.15;100583.72;4900597;29;20158;-77
2021/10/02 02:36:38;;;;;;;11.57;7.35;;;;;;;10.29;69.88;100590.66;4885170;29;20381;-78
2021/10/02 02:39:04;;;;;;;9.90;6.70;;;;;;;10.23;69.80;100573.16;4885168;29;20051;-77
2021/10/02 02:41:30;;;;;;;7.95;6.32;;;;;;;10.32;69.58;100587.81;4869564;29;20159;-77
2021/10/02 02:43:56;;;;;;;10.45;6.80;;;;;;;10.28;69.64;100587.13;4884948;29;20147;-76
2021/10/02 02:46:30;;;;;;;9.65;6.45;;;;;;;10.17;70.04;100586.84;4884985;29;20443;-77
2021/10/02 02:49:11;;;;;;;8.43;6.88;;;;;;;10.05;70.35;100577.75;4886075;29;20157;-78
2021/10/02 02:51:43;;;;;;;12.90;6.90;;;;;;;10.10;70.87;100583.69;4886308;29;20044;-76
2021/10/02 02:54:15;;;;;;;9.27;6.75;;;;;;;10.12;70.77;100591.63;4885372;29;20111;-76
2021/10/02 02:56:46;;;;;;;9.05;6.32;;;;;;;9.93;70.84;100573.97;4884466;29;20386;-75
2021/10/02 02:59:20;;;;;;;11.38;6.72;;;;;;;9.98;71.16;100582.56;4869640;29;20051;-76
2021/10/02 03:01:47;;;;;;;11.15;7.03;;;;;;;10.02;70.98;100585.09;4869417;29;20047;-76
2021/10/02 03:04:14;;;;;;;8.88;6.95;;;;;;;10.07;70.88;100585.66;4884520;29;20060;-76
2021/10/02 03:06:44;;;;;;;9.65;6.90;;;;;;;10.17;70.85;100590.38;4869024;29;20076;-76
2021/10/02 03:09:10;;;;;;;8.40;6.72;;;;;;;10.27;70.50;100589.88;4868952;29;20476;-76
2021/10/02 03:11:36;;;;;;;9.88;7.88;;;;;;;10.16;70.61;100587.81;4884457;29;20133;-76
2021/10/02 03:14:02;;;;;;;12.60;7.57;;;;;;;10.19;70.38;100577.81;4884237;29;20079;-75
2021/10/02 03:16:28;;;;;;;9.60;7.80;;;;;;;10.21;70.17;100575.03;4881261;29;20052;-77
2021/10/02 03:18:58;;;;;;;12.57;7.10;;;;;;;10.25;70.63;100591.75;4866543;29;20041;-75
2021/10/02 03:21:24;;;;;;;17.38;7.93;;;;;;;10.25;70.30;100587.28;4881200;29;20135;-76
2021/10/02 03:23:50;;;;;;;8.13;6.60;;;;;;;10.26;70.16;100594.34;4880940;29;20173;-77
2021/10/02 03:26:16;;;;;;;13.80;7.68;;;;;;;10.34;69.91;100585.88;4881268;29;20052;-77
2021/10/02 03:28:43;;;;;;;9.73;7.15;;;;;;;10.27;70.43;100588.09;4881119;29;20139;-75
2021/10/02 03:31:09;;;;;;;9.93;7.93;;;;;;;10.23;70.69;100573.16;4899183;29;20059;-77
2021/10/02 03:33:35;;;;;;;9.85;8.05;;;;;;;10.19;71.01;100577.81;4895945;29;20052;-78
2021/10/02 03:36:01;;;;;;;13.07;9.90;;;;;;;10.21;71.30;100586.59;4882814;29;20135;-78
2021/10/02 03:38:27;;;;;;;14.65;10.68;;;;;;;10.24;71.64;100587.38;4896908;29;20055;-78
2021/10/02 03:40:58;;;;;;;13.88;10.20;;;;;;;9.83;73.20;100574.59;4881739;29;20045;-77
2021/10/02 03:43:29;;;;;;;15.88;11.30;;;;;;;9.91;73.55;100586.53;4881936;29;20048;-77
2021/10/02 03:45:56;;;;;;;16.50;10.88;;;;;;;9.77;74.40;100586.47;4867589;29;20048;-78
2021/10/02 03:48:21;;;;;;;13.90;9.68;;;;;;;9.59;74.75;100584.84;4900059;29;20453;-77
2021/10/02 03:50:47;;;;;;;14.38;9.63;;;;;;;9.77;74.42;100607.84;4898889;29;20052;-77
2021/10/02 03:53:13;;;;;;;14.00;10.32;;;;;;;9.71;74.53;100584.16;4901676;29;20040;-79
2021/10/02 03:55:39;;;;;;;13.35;9.95;;;;;;;9.89;74.21;100591.13;4881093;29;20051;-79
2021/10/02 03:58:05;;;;;;;13.68;9.95;;;;;;;10.03;73.80;100581.44;4883182;29;20064;-77
2021/10/02 04:00:31;;;;;;;16.40;10.32;;;;;;;10.22;73.05;100587.44;4865185;29;20040;-78
2021/10/02 04:02:57;;;;;;;15.68;10.32;;;;;;;10.25;72.92;100603.31;4865709;29;20056;-76
2021/10/02 04:05:23;;;;;;;17.85;10.00;;;;;;;10.26;72.81;100589.00;4880055;29;20100;-76
2021/10/02 04:07:49;;;;;;;12.65;9.45;;;;;;;10.36;72.45;100602.69;4895814;29;20037;-79
2021/10/02 04:10:15;;;;;;;14.00;9.82;;;;;;;10.22;72.82;100608.81;4880136;29;20472;-79
2021/10/02 04:12:41;;;;;;;13.45;9.40;;;;;;;10.09;72.94;100592.66;4864972;29;20079;-78
2021/10/02 04:15:07;;;;;;;11.82;9.48;;;;;;;10.13;73.04;100598.69;4866962;29;20053;-77
2021/10/02 04:17:35;;;;;;;11.50;8.90;;;;;;;10.31;72.74;100600.31;4880486;29;20044;-77
2021/10/02 04:20:01;;;;;;;11.88;8.57;;;;;;;10.51;72.65;100608.97;4866095;29;20044;-76
2021/10/02 04:22:27;;;;;;;11.63;9.10;;;;;;;10.60;71.90;100608.38;4880555;29;20143;-79
2021/10/02 04:24:53;;;;;;;12.60;8.65;;;;;;;10.63;71.83;100614.41;4849915;29;20135;-85
2021/10/02 04:27:19;;;;;;;11.90;8.57;;;;;;;10.70;71.82;100609.56;4880439;29;20048;-87
2021/10/02 04:29:45;;;;;;;12.77;8.50;;;;;;;10.87;71.74;100620.13;4864965;29;20045;-85
2021/10/02 04:32:11;;;;;;;10.77;8.27;;;;;;;10.98;71.00;100621.25;4867717;29;20056;-84
2021/10/02 04:34:37;;;;;;;13.95;8.05;;;;;;;10.88;70.81;100619.16;4880290;29;20042;-81
2021/10/02 04:37:03;;;;;;;10.98;8.73;;;;;;;10.78;70.59;100596.59;4881738;29;20037;-87
2021/10/02 04:39:28;;;;;;;9.50;7.75;;;;;;;10.88;70.76;100620.97;4888175;29;20055;-82
2021/10/02 04:41:54;;;;;;;11.18;7.55;;;;;;;10.93;70.17;100619.72;4899347;29;20048;-79
2021/10/02 04:44:21;;;;;;;11.15;8.13;;;;;;;10.91;70.35;100602.06;4918488;29;20044;-82
2021/10/02 04:46:47;;;;;;;11.30;8.68;;;;;;;11.03;69.93;100624.53;4920504;29;20095;-84
2021/10/02 04:49:12;;;;;;;12.60;8.10;;;;;;;10.74;69.87;100616.44;4936515;29;20455;-81
2021/10/02 04:51:39;;;;;;;10.93;7.90;;;;;;;10.80;70.39;100637.50;4921543;29;20048;-88
2021/10/02 04:54:05;;;;;;;9.02;7.70;;;;;;;10.79;70.23;100627.72;4921404;29;20040;-87
2021/10/02 04:56:32;;;;;;;10.93;7.82;;;;;;;10.77;70.17;100613.59;4889743;29;20411;-80
2021/10/02 04:58:58;;;;;;;13.88;6.70;;;;;;;11.04;72.76;100623.56;4920738;29;20142;-78
2021/10/02 05:01:24;;;;;;;8.85;6.07;;;;;;;11.79;72.82;100633.06;4937884;29;20155;-77
2021/10/02 05:03:50;;;;;;;12.70;7.78;;;;;;;11.60;67.00;100611.13;4936317;29;20134;-79
2021/10/02 05:06:17;;;;;;;11.98;8.02;;;;;;;12.04;68.25;100618.13;4920798;29;20052;-81
2021/10/02 05:08:43;;;;;;;9.65;7.82;;;;;;;12.01;66.05;100626.34;4920890;29;20110;-80
2021/10/02 05:11:09;;;;;;;9.40;8.40;;;;;;;11.86;66.08;100618.34;4920368;29;20048;-79
2021/10/02 05:13:35;;;;;;;8.82;7.47;;;;;;;11.88;66.28;100618.25;4920291;29;20059;-79
2021/10/02 05:16:01;;;;;;;11.73;7.85;;;;;;;11.62;66.02;100617.22;4904846;29;20039;-80
2021/10/02 05:18:27;;;;;;;10.25;7.65;;;;;;;11.39;66.96;100618.69;4920907;29;20044;-79
2021/10/02 05:20:53;;;;;;;12.25;7.72;;;;;;;11.30;67.02;100609.41;4920764;29;20114;-79
2021/10/02 05:23:19;;;;;;;14.00;8.25;;;;;;;11.33;67.37;100625.28;4920450;29;20054;-80
2021/10/02 05:25:45;;;;;;;9.95;7.97;;;;;;;11.28;67.16;100610.47;4920604;29;20052;-80
2021/10/02 05:28:11;;;;;;;10.05;8.07;;;;;;;11.24;67.25;100625.00;4904722;29;20253;-78
2021/10/02 05:30:37;;;;;;;11.88;8.32;;;;;;;11.20;67.59;100608.25;4919962;29;20048;-80
2021/10/02 05:33:06;;;;;;;11.15;8.13;;;;;;;11.28;67.38;100616.66;4904433;29;20122;-79
2021/10/02 05:35:36;;;;;;;13.13;8.38;;;;;;;11.30;67.23;100620.13;4920152;29;20040;-79
2021/10/02 05:38:05;;;;;;;10.05;8.52;;;;;;;11.30;67.37;100619.28;4920680;29;20062;-82
2021/10/02 05:40:31;;;;;;;12.45;7.70;;;;;;;11.25;67.35;100624.91;4904331;29;20043;-77
2021/10/02 05:42:59;;;;;;;10.93;7.78;;;;;;;11.45;68.25;100615.63;4935760;29;20046;-75
2021/10/02 05:45:25;;;;;;;10.88;9.13;;;;;;;11.42;67.14;100603.28;4935652;29;20062;-76
2021/10/02 05:47:51;;;;;;;12.02;8.48;;;;;;;11.54;66.94;100601.63;4920043;29;20118;-78
2021/10/02 05:50:17;;;;;;;15.52;9.27;;;;;;;11.67;66.60;100602.59;4903870;29;20050;-77
2021/10/02 05:52:43;;;;;;;14.35;8.95;;;;;;;11.77;66.00;100612.69;4919617;29;20044;-75
2021/10/02 05:55:10;;;;;;;11.73;8.80;;;;;;;11.76;65.67;100611.84;4903633;29;20147;-76
2021/10/02 05:57:36;;;;;;;12.30;8.75;;;;;;;11.76;65.52;100614.50;4902958;29;20136;-77
2021/10/02 06:00:05;;;;;;;16.02;9.35;;;;;;;11.67;65.70;100607.09;4919466;29;20083;-79
2021/10/02 06:02:37;;;;;;;14.07;9.95;;;;;;;11.95;67.13;100610.66;4920975;29;20171;-78
2021/10/02 06:05:04;;;;;;;12.82;9.10;;;;;;;11.84;65.70;100589.94;4919667;29;20138;-78
2021/10/02 06:07:30;;;;;;;12.82;9.05;;;;;;;11.84;65.50;100614.91;4919901;29;20046;-79
2021/10/02 06:09:56;;;;;;;18.55;8.65;;;;;;;12.22;68.59;100605.31;4919373;29;20039;-79
2021/10/02 06:12:21;;;;;;;12.95;8.90;;;;;;;12.29;64.98;100610.16;4919459;29;20410;-81
2021/10/02 06:14:47;;;;;;;12.90;9.23;;;;;;;12.16;64.83;100614.63;4915857;29;20230;-79
2021/10/02 06:17:13;;;;;;;14.32;8.55;;;;;;;11.99;65.29;100596.09;4919050;29;20040;-78
2021/10/02 06:19:39;;;;;;;11.63;8.82;;;;;;;12.30;65.34;100600.31;4919485;29;20114;-80
2021/10/02 06:22:05;;;;;;;10.70;7.82;;;;;;;12.49;65.15;100571.28;4904066;29;20044;-79
2021/10/02 06:24:38;;;;;;;12.70;8.45;;;;;;;13.10;64.49;100618.00;4936436;29;20368;-83
2021/10/02 06:27:04;;;;;;;10.20;8.40;;;;;;;13.38;63.00;100620.59;4919169;29;20039;-79
2021/10/02 06:29:30;;;;;;;11.18;7.88;;;;;;;13.34;61.76;100618.13;4935072;29;20370;-82
2021/10/02 06:31:56;;;;;;;15.20;9.05;;;;;;;13.27;61.67;100608.78;4887795;29;20130;-80
2021/10/02 06:34:22;;;;;;;9.35;7.72;;;;;;;13.36;62.28;100620.72;4903444;29;20047;-79
2021/10/02 06:36:55;;;;;;;8.68;6.03;;;;;;;13.64;62.22;100610.66;4920658;29;20126;-79
2021/10/02 06:39:21;;;;;;;9.35;6.25;;;;;;;13.58;58.64;100602.09;4903330;29;20142;-78
2021/10/02 06:41:47;;;;;;;7.82;5.28;;;;;;;13.32;59.57;100622.75;4919096;29;20062;-79
2021/10/02 06:44:15;;;;;;;6.78;5.53;;;;;;;13.00;60.53;100599.97;4918948;29;20047;-76
2021/10/02 06:46:41;;;;;;;7.13;6.18;;;;;;;12.75;61.21;100623.16;4918821;29;20495;-80
2021/10/02 06:49:07;;;;;;;8.57;4.95;;;;;;;12.34;62.86;100609.88;4918821;29;20486;-79
2021/10/02 06:51:33;;;;;;;6.32;5.38;;;;;;;12.40;62.87;100620.16;4934560;29;20126;-77
2021/10/02 06:53:59;;;;;;;6.50;4.53;;;;;;;12.46;63.17;100610.84;4902415;29;20047;-76
2021/10/02 06:56:29;;;;;;;6.60;4.75;;;;;;;12.63;63.01;100613.22;4919127;29;20163;-76
2021/10/02 06:58:55;;;;;;;5.72;4.65;;;;;;;12.25;63.44;100603.28;4919022;29;20056;-79
2021/10/02 07:01:21;;;;;;;7.75;4.07;;;;;;;12.45;63.41;100619.84;4919132;29;20058;-77
2021/10/02 07:03:47;;;;;;;7.65;4.20;;;;;;;12.22;63.49;100627.59;4918734;29;20079;-77
2021/10/02 07:06:13;;;;;;;5.45;3.50;;;;;;;11.72;64.72;100626.38;4918679;29;20048;-78
2021/10/02 07:08:42;;;;;;;3.88;2.60;;;;;;;11.04;66.41;100612.88;4918625;29;20146;-76
2021/10/02 07:11:08;;;;;;;4.10;2.35;;;;;;;11.08;66.53;100625.09;4919329;29;20047;-77
2021/10/02 07:13:37;;;;;;;3.25;2.50;;;;;;;10.74;67.91;100631.63;4919062;29;20055;-78
2021/10/02 07:16:06;;;;;;;2.03;1.88;;;;;;;10.56;69.34;100623.75;4933864;29;20099;-79
2021/10/02 07:18:32;;;;;;;1.70;1.60;;;;;;;10.35;70.20;100617.88;4918822;29;20520;-78
2021/10/02 07:20:58;;;;;;;3.78;2.13;;;;;;;10.34;70.44;100620.63;4902648;29;20043;-80
2021/10/02 07:23:29;;;;;;;2.13;1.90;;;;;;;10.13;70.83;100609.38;4902668;29;20087;-78
2021/10/02 07:25:58;;;;;;;2.42;2.22;;;;;;;10.11;71.70;100603.22;4919168;29;20083;-77
2021/10/02 07:28:23;;;;;;;2.65;2.30;;;;;;;10.19;71.48;100619.69;4933957;29;20075;-79
2021/10/02 07:30:49;;;;;;;1.63;1.40;;;;;;;10.24;70.96;100617.63;4933813;29;20135;-85
2021/10/02 07:33:15;;;;;;;2.15;1.67;;;;;;;10.35;70.39;100617.88;4918146;29;20043;-81
2021/10/02 07:35:41;;;;;;;1.95;1.77;;;;;;;10.49;70.10;100613.50;4917856;29;20052;-81
2021/10/02 07:38:07;;;;;;;1.63;1.50;;;;;;;10.62;69.43;100604.69;4918865;29;20055;-81
2021/10/02 07:40:34;;;;;;;2.63;1.70;;;;;;;10.66;68.67;100602.69;4902529;29;20142;-82
2021/10/02 07:43:01;;;;;;;1.60;1.50;;;;;;;10.75;67.88;100622.66;4918383;29;20039;-80
2021/10/02 07:45:27;;;;;;;1.52;1.42;;;;;;;10.73;68.18;100616.56;4900561;29;20050;-83
2021/10/02 07:47:56;;;;;;;1.50;1.40;;;;;;;10.60;68.34;100603.03;4901822;29;20043;-82
2021/10/02 07:50:22;;;;;;;2.60;1.80;;;;;;;10.78;68.59;100617.97;4886762;29;20139;-81
2021/10/02 07:52:50;;;;;;;1.70;1.60;;;;;;;10.92;67.98;100599.28;4902942;29;20051;-84
2021/10/02 07:55:16;;;;;;;2.20;1.73;;;;;;;10.87;66.81;100612.09;4887075;29;20502;-82
2021/10/02 07:57:43;;;;;;;1.45;1.35;;;;;;;10.83;66.96;100615.91;4902627;29;20039;-81
2021/10/02 08:00:14;;;;;;;1.70;1.60;;;;;;;10.66;67.23;100603.53;4888776;29;20047;-82
2021/10/02 08:02:47;;;;;;;1.60;1.50;;;;;;;10.75;66.43;100618.16;4904947;29;20048;-81
2021/10/02 08:05:13;;;;;;;1.52;1.42;;;;;;;10.81;66.38;100606.25;4890098;29;20455;-84
2021/10/02 08:07:40;;;;;;;2.75;1.95;;;;;;;10.93;66.19;100605.50;4890829;29;20095;-81
2021/10/02 08:10:07;;;;;;;1.90;1.80;;;;;;;11.20;65.58;100608.25;4902966;29;20052;-79
2021/10/02 08:12:33;;;;;;;2.35;2.15;;;;;;;11.24;65.19;100609.78;4903023;29;20040;-79
2021/10/02 08:15:00;;;;;;;2.15;2.00;;;;;;;11.12;65.21;100627.47;4902566;29;20063;-81
2021/10/02 08:17:27;;;;;;;3.22;2.65;;;;;;;11.13;65.65;100617.63;4886701;29;20042;-79
2021/10/02 08:19:59;;;;;;;3.33;2.28;;;;;;;11.22;65.31;100610.88;4903294;29;20059;-79
2021/10/02 08:22:26;;;;;;;2.65;2.45;;;;;;;11.41;64.70;100617.63;4906844;29;20091;-84
2021/10/02 08:24:52;;;;;;;2.67;2.47;;;;;;;11.30;64.79;100604.06;4890979;29;20111;-83
2021/10/02 08:27:20;;;;;;;4.53;2.50;;;;;;;11.45;64.58;100585.31;4890546;29;20040;-82
2021/10/02 08:29:49;;;;;;;2.55;2.35;;;;;;;11.85;64.11;100610.44;4906252;29;20062;-81
2021/10/02 08:32:18;;;;;;;2.40;2.20;;;;;;;12.12;62.95;100608.59;4939094;29;20074;-81
2021/10/02 08:34:44;;;;;;;3.85;2.60;;;;;;;12.29;62.97;100604.78;4891003;29;20295;-81
2021/10/02 08:37:10;;;;;;;4.28;3.17;;;;;;;12.27;62.55;100606.72;4891763;29;20059;-82
2021/10/02 08:39:36;;;;;;;5.97;3.00;;;;;;;12.17;61.73;100608.28;4892263;29;20542;-82
2021/10/02 08:42:02;;;;;;;3.13;2.60;;;;;;;12.09;61.39;100586.50;4891829;29;20047;-80
2021/10/02 08:44:28;;;;;;;3.40;2.67;;;;;;;12.02;61.69;100596.78;4907966;29;20074;-82
2021/10/02 08:46:57;;;;;;;3.65;2.53;;;;;;;11.78;61.99;100609.94;4890586;29;20048;-81
2021/10/02 08:49:39;;;;;;;3.10;2.13;;;;;;;11.76;60.71;100587.72;4890595;29;20050;-80
2021/10/02 08:52:06;;;;;;;3.67;2.58;;;;;;;11.77;61.40;100596.63;4922084;29;20082;-81
2021/10/02 08:54:37;;;;;;;3.50;2.30;;;;;;;11.68;61.69;100590.91;4891115;29;20039;-79
2021/10/02 08:57:10;;;;;;;3.25;2.92;;;;;;;11.56;62.43;100593.53;4906017;29;20415;-83
2021/10/02 08:59:37;;;;;;;2.78;2.40;;;;;;;11.58;62.87;100599.63;4890171;29;20076;-81
2021/10/02 09:02:05;;;;;;;2.47;2.28;;;;;;;11.80;62.87;100580.34;4921190;29;20043;-78
2021/10/02 09:04:38;;;;;;;8.07;2.60;;;;;;;11.93;62.41;100593.84;4905722;29;20043;-79
2021/10/02 09:07:09;;;;;;;2.88;1.80;;;;;;;12.11;61.02;100580.09;4890370;29;20408;-80
2021/10/02 09:09:35;;;;;;;2.85;1.60;;;;;;;11.86;60.48;100586.22;4905121;29;20046;-79
2021/10/02 09:12:05;;;;;;;1.73;1.35;;;;;;;11.49;61.20;100602.91;4905533;29;20043;-80
2021/10/02 09:14:34;;;;;;;2.70;1.42;;;;;;;11.08;62.61;100598.34;4905865;29;20066;-80
2021/10/02 09:17:00;;;;;;;2.67;1.77;;;;;;;10.99;63.14;100599.78;4889716;29;20451;-81
2021/10/02 09:19:28;;;;;;;6.00;1.77;;;;;;;10.85;63.36;100603.28;4889767;29;20043;-79
2021/10/02 09:22:01;;;;;;;3.30;1.90;;;;;;;10.63;63.35;100592.16;4905050;29;20518;-79
2021/10/02 09:24:29;;;;;;;1.92;1.80;;;;;;;10.80;63.66;100610.75;4905971;29;20054;-78
2021/10/02 09:26:55;;;;;;;2.55;1.70;;;;;;;10.83;62.70;100599.84;4905073;29;20063;-79
2021/10/02 09:29:40;;;;;;;2.03;1.48;;;;;;;10.97;63.10;100601.66;4920346;29;20051;-78
2021/10/02 09:32:17;;;;;;;1.60;1.50;;;;;;;10.91;62.36;100576.16;4905386;29;20056;-76
2021/10/02 09:34:51;;;;;;;2.47;1.70;;;;;;;10.97;62.19;100577.59;4904717;29;20573;-76
2021/10/02 09:37:18;;;;;;;2.45;1.80;;;;;;;11.24;61.37;100606.25;4881871;29;20179;-77
2021/10/02 09:39:44;;;;;;;3.17;1.80;;;;;;;11.15;61.07;100595.19;4889139;29;20047;-77
2021/10/02 09:42:21;;;;;;;1.80;1.70;;;;;;;10.87;61.81;100604.06;4888790;29;20051;-79
2021/10/02 09:44:47;;;;;;;1.65;1.55;;;;;;;10.90;61.87;100605.66;4904756;29;20131;-78
2021/10/02 09:47:14;;;;;;;2.80;1.83;;;;;;;10.88;61.88;100604.94;4919067;29;20074;-77
2021/10/02 09:49:43;;;;;;;3.60;1.80;;;;;;;11.05;61.47;100593.16;4904522;29;20047;-80
2021/10/02 09:52:26;;;;;;;5.55;2.17;;;;;;;11.16;59.92;100593.34;4888591;29;20079;-78
2021/10/02 09:55:15;;;;;;;3.63;1.98;;;;;;;11.27;59.95;100580.16;4888492;29;20099;-76
2021/10/02 09:57:44;;;;;;;2.20;1.83;;;;;;;11.57;59.04;100592.56;4906452;29;20052;-79
2021/10/02 10:00:13;;;;;;;2.40;2.17;;;;;;;11.71;58.71;100583.63;4888496;29;20056;-79
2021/10/02 10:02:40;;;;;;;3.30;2.33;;;;;;;11.85;58.34;100579.13;4888773;29;20063;-78
2021/10/02 10:05:07;;;;;;;2.40;2.20;;;;;;;11.99;57.41;100580.03;4903814;29;20059;-80
2021/10/02 10:07:33;;;;;;;2.30;2.13;;;;;;;12.07;56.89;100593.78;4888486;29;20051;-78
2021/10/02 10:10:12;;;;;;;3.50;2.65;;;;;;;12.06;56.00;100586.72;4888290;29;20558;-77
2021/10/02 10:12:39;;;;;;;8.90;3.10;;;;;;;12.12;56.52;100586.31;4889518;29;20395;-78
2021/10/02 10:15:25;;;;;;;3.58;2.40;;;;;;;12.06;55.67;100592.06;4902817;29;20083;-80
2021/10/02 10:17:51;;;;;;;2.92;2.30;;;;;;;11.80;56.18;100591.06;4875180;29;20499;-77
2021/10/02 10:20:17;;;;;;;3.83;2.03;;;;;;;11.59;56.72;100598.69;4888017;29;20467;-78
2021/10/02 10:22:43;;;;;;;3.60;2.05;;;;;;;11.32;57.71;100603.97;4888017;29;20142;-77
2021/10/02 10:25:11;;;;;;;2.53;2.33;;;;;;;11.20;58.53;100602.91;4887508;29;20094;-79
2021/10/02 10:27:44;;;;;;;2.20;2.00;;;;;;;11.01;59.31;100599.66;4904027;29;20067;-78
2021/10/02 10:30:23;;;;;;;3.47;2.00;;;;;;;10.99;60.14;100578.38;4887616;29;20043;-77
2021/10/02 10:33:09;;;;;;;2.33;2.05;;;;;;;11.25;59.87;100587.44;4887720;29;20043;-78
2021/10/02 10:35:40;;;;;;;6.18;2.67;;;;;;;11.31;59.60;100578.16;4920753;29;20048;-76
2021/10/02 10:38:07;;;;;;;3.03;2.28;;;;;;;11.70;59.38;100580.09;4888063;29;20478;-77
2021/10/02 10:40:33;;;;;;;4.43;2.08;;;;;;;11.91;58.62;100592.13;4887757;29;20507;-79
2021/10/02 10:42:59;;;;;;;4.32;2.45;;;;;;;11.93;58.80;100591.16;4902561;29;20091;-77
2021/10/02 10:45:26;;;;;;;5.03;2.55;;;;;;;11.87;58.56;100582.56;4902458;29;20051;-77
2021/10/02 10:47:52;;;;;;;3.95;2.20;;;;;;;11.87;58.88;100587.91;4918986;29;20048;-77
2021/10/02 10:50:18;;;;;;;4.18;2.30;;;;;;;11.89;58.63;100591.38;4903292;29;20068;-78
2021/10/02 10:52:44;;;;;;;2.65;2.45;;;;;;;11.97;58.56;100588.19;4887679;29;20095;-77
2021/10/02 10:55:21;;;;;;;8.07;3.20;;;;;;;11.83;59.04;100582.84;4918319;29;20040;-77
2021/10/02 10:57:54;;;;;;;3.50;2.90;;;;;;;11.64;59.28;100551.03;4903260;29;20142;-79
2021/10/02 11:00:29;;;;;;;5.65;3.00;;;;;;;11.62;59.27;100585.06;4902672;29;20474;-79
2021/10/02 11:03:04;;;;;;;7.65;3.45;;;;;;;11.70;59.56;100593.50;4918522;29;20114;-78
2021/10/02 11:05:36;;;;;;;6.60;3.25;;;;;;;11.62;59.39;100587.75;4903964;29;20048;-78
2021/10/02 11:08:08;;;;;;;3.70;2.88;;;;;;;11.40;60.40;100588.28;4935360;29;20468;-78
2021/10/02 11:10:54;;;;;;;3.97;2.42;;;;;;;11.47;60.60;100588.75;4918467;29;20047;-76
2021/10/02 11:13:45;;;;;;;2.60;2.25;;;;;;;11.52;61.36;100581.28;4895196;29;20491;-77
2021/10/02 11:16:30;;;;;;;2.83;2.35;;;;;;;11.66;60.84;100589.31;4882512;29;20063;-78
2021/10/02 11:18:57;;;;;;;8.05;3.83;;;;;;;11.59;60.16;100588.84;4887112;29;20048;-79
2021/10/02 11:21:29;;;;;;;4.28;2.30;;;;;;;11.32;58.69;100578.06;4902665;29;20052;-78
2021/10/02 11:24:08;;;;;;;1.83;1.70;;;;;;;11.07;58.78;100592.13;4919092;29;20054;-77
2021/10/02 11:26:40;;;;;;;5.03;2.05;;;;;;;10.97;59.07;100592.78;4902790;29;20082;-77
2021/10/02 11:29:25;;;;;;;3.80;2.20;;;;;;;10.88;59.59;100576.34;4870081;29;20047;-77
2021/10/02 11:32:12;;;;;;;4.82;2.95;;;;;;;11.16;59.24;100588.00;4917063;29;20048;-76
2021/10/02 11:35:01;;;;;;;8.25;2.90;;;;;;;11.13;59.07;100590.88;4904396;29;20047;-75
2021/10/02 11:37:48;;;;;;;4.28;2.50;;;;;;;11.16;58.83;100577.31;4919260;29;20055;-76
2021/10/02 11:40:36;;;;;;;4.70;2.72;;;;;;;11.24;58.98;100598.22;4918748;29;20043;-76
2021/10/02 11:43:21;;;;;;;3.25;2.20;;;;;;;11.10;60.01;100591.09;4901767;29;20039;-76
2021/10/02 11:45:47;;;;;;;2.83;2.25;;;;;;;11.23;59.71;100596.53;4901280;29;20075;-77
2021/10/02 11:48:18;;;;;;;5.55;2.67;;;;;;;11.11;59.48;100592.78;4902554;29;20082;-77
2021/10/02 11:50:45;;;;;;;3.70;2.50;;;;;;;11.11;59.79;100595.47;4886665;29;20035;-77
2021/10/02 11:53:11;;;;;;;3.42;2.53;;;;;;;10.99;60.01;100601.59;4902034;29;20059;-76
2021/10/02 11:55:43;;;;;;;5.00;2.72;;;;;;;11.08;60.21;100603.69;4936106;29;20396;-77
2021/10/02 11:58:11;;;;;;;2.28;1.90;;;;;;;11.09;59.91;100602.72;4921584;29;20044;-77
2021/10/02 12:00:44;;;;;;;2.58;2.33;;;;;;;10.82;60.62;100602.59;4905139;29;20107;-77
2021/10/02 12:03:17;;;;;;;3.25;2.00;;;;;;;10.60;61.35;100611.06;4921088;29;20063;-77
2021/10/02 12:05:52;;;;;;;6.60;2.70;;;;;;;10.43;62.27;100610.25;4891005;29;20062;-77
2021/10/02 12:08:18;;;;;;;2.30;1.98;;;;;;;10.30;62.67;100611.94;4921458;29;20503;-77
2021/10/02 12:11:07;;;;;;;2.47;1.90;;;;;;;10.17;63.21;100614.44;4906319;29;20039;-77
2021/10/02 12:13:38;;;;;;;2.75;2.35;;;;;;;10.06;63.60;100613.34;4906121;29;20060;-78
2021/10/02 12:16:09;;;;;;;8.63;3.25;;;;;;;10.12;63.54;100607.66;4905764;29;20043;-78
2021/10/02 12:18:48;;;;;;;2.67;2.15;;;;;;;10.27;63.46;100616.59;4905825;29;20082;-80
2021/10/02 12:21:23;;;;;;;2.10;1.70;;;;;;;10.34;63.14;100608.16;4905326;29;20060;-76
2021/10/02 12:24:04;;;;;;;2.72;1.70;;;;;;;10.39;62.96;100615.88;4905647;29;20531;-78